Historyczne dane pomiarowe

Dodano dane terminowe – wersja testowa.

Dane z okresu 1951-2019

Wersja bazy: 1.34 [2019-03-16, lista zmian], aktualizacja planowana na 2019-04-15

Dane meteo z obszaru Polski uzyskane na podstawie danych udostępnionych przez Instytut Meteorologii i Gospodarki Wodnej – Państwowy Instytut Badawczy.

 

Wybierz Datę:    

       

TemperaturaWilgotnośćWiatrCiśnienieOpadyŚniegCzas trwania zjawisk
 Stacja t tx tn tng RH VA  wxwx mslp ppp RRR   cm mm wxwxwxwxwxwxwx
2012-08-13 15.1 22.4 8.7 6.2-- 5.3----- 0.0------------
2012-08-14 16.1 23.4 10.8 9.6-- 4.7----- 0.0------------
2012-08-15 16.7 20.9 11.0 10.5-- 7.0----- 0.0------------
2012-08-16 17.9 22.9 14.6 14.6-- 7.7----- 0.0------------
2012-08-17 18.6 25.4 13.2 12.6-- 4.7----- 0.0------------
2012-08-18 18.9 26.4 11.2 8.2-- 2.7----- 0.0------------
2012-08-19 22.5 32.1 13.6 11.2-- 0.0----- 0.0------------
2012-08-20 22.9 34.4 16.3 14.2-- 4.3----- 5.9------------
2012-08-21 22.2 28.4 17.8 16.5-- 3.0----- 0.2------------
2012-08-22 21.3 27.9 17.3 16.6-- 2.0----- 0.1------------
2012-08-23 18.2 26.4 11.6 10.3-- 2.0----- 0.0------------
2012-08-24 16.1 22.3 10.4 7.3-- 6.0----- 2.6------------
2012-08-25 18.7 25.5 13.0 13.0-- 6.0----- 0.1------------
2012-08-26 19.3 25.0 15.7 14.3-- 3.7----- 0.6------------
2012-08-27 16.4 22.9 12.9 10.1-- 5.3----- 0.0------------
2012-08-28 13.8 23.4 5.2 2.7-- 3.0----- 0.0------------
2012-08-29 19.1 27.3 11.7 8.5-- 3.3----- 0.0------------
2012-08-30 19.5 27.5 11.4 9.2-- 6.7----- 0.3------------
2012-08-31 18.0 24.9 15.0 14.6-- 8.0----- 5.9------------
2012-09-01 16.1 20.4 13.0 12.6-- 5.0----- 0.0------------
2012-09-02 16.9 24.3 8.8 6.7-- 4.0----- 0.0------------
2012-09-03 17.6 24.4 13.2 11.2-- 2.7----- 0.0------------
2012-09-04 16.6 23.9 11.3 8.1-- 1.3----- 0.0------------
2012-09-05 15.3 22.8 10.3 8.6-- 5.3----- 0.0------------
2012-09-06 14.3 21.0 10.3 8.1-- 4.3----- 0.0------------
2012-09-07 12.8 17.9 7.5 4.5-- 8.0----- 1.7------------
2012-09-08 14.2 19.9 10.1 9.2-- 3.0----- 0.0------------
2012-09-09 15.5 21.9 10.0 8.1-- 1.3----- 0.0------------
2012-09-10 19.0 28.9 11.9 11.1-- 0.7----- 0.0------------
2012-09-11 20.5 31.9 13.3 11.6-- 3.0----- 0.9------------
799.2 ms

 

Źródłem pochodzenia danych jest Instytut Meteorologii i Gospodarki Wodnej – Państwowy Instytut Badawczy. Dane Instytutu Meteorologii i Gospodarki Wodnej – Państwowego Instytutu Badawczego zostały przetworzone.

Dane źródłowe można odnaleźć na stronie https://dane.imgw.pl